createdAt,value
2022-10-18T00:02:43.055Z,16.90
2022-10-18T00:05:44.701Z,16.90
2022-10-18T00:08:46.343Z,17.00
2022-10-18T00:11:47.934Z,17.00
2022-10-18T00:14:50.920Z,16.90
2022-10-18T00:17:52.634Z,16.80
2022-10-18T00:20:58.255Z,16.80
2022-10-18T00:24:00.498Z,16.80
2022-10-18T00:27:02.113Z,16.90
2022-10-18T00:30:05.088Z,16.90
2022-10-18T00:33:06.664Z,16.90
2022-10-18T00:36:08.600Z,16.90
2022-10-18T00:39:17.144Z,16.80
2022-10-18T00:42:20.613Z,16.90
2022-10-18T00:45:24.560Z,16.90
2022-10-18T00:48:26.367Z,16.80
2022-10-18T00:51:33.475Z,16.80
2022-10-18T00:54:38.008Z,16.80
2022-10-18T00:57:42.537Z,16.80
2022-10-18T01:00:44.231Z,16.80
2022-10-18T01:03:45.879Z,16.80
2022-10-18T01:07:08.946Z,16.90
2022-10-18T01:10:10.460Z,16.80
2022-10-18T01:13:41.548Z,16.80
2022-10-18T01:16:53.645Z,16.80
2022-10-18T01:20:19.090Z,16.80
2022-10-18T01:23:39.590Z,16.90
2022-10-18T01:27:13.490Z,16.80
2022-10-18T01:30:37.949Z,16.70
2022-10-18T01:33:53.557Z,16.60
2022-10-18T01:36:56.845Z,16.60
2022-10-18T01:40:00.176Z,16.70
2022-10-18T01:43:03.221Z,16.70
2022-10-18T01:46:05.149Z,16.70
2022-10-18T01:49:07.398Z,16.70
2022-10-18T01:52:16.242Z,16.60
2022-10-18T01:55:24.427Z,16.50
2022-10-18T01:58:31.140Z,16.50
2022-10-18T02:01:48.668Z,16.50
2022-10-18T02:05:14.289Z,16.50
2022-10-18T02:08:37.326Z,16.40
2022-10-18T02:11:40.798Z,16.30
2022-10-18T02:14:43.745Z,16.20
2022-10-18T02:17:46.562Z,16.10
2022-10-18T02:20:49.568Z,16.10
2022-10-18T02:23:52.539Z,16.10
2022-10-18T02:26:54.099Z,16.00
2022-10-18T02:29:55.842Z,16.00
2022-10-18T02:33:05.229Z,16.00
2022-10-18T02:36:18.195Z,15.90
2022-10-18T02:39:24.448Z,15.80
2022-10-18T02:42:32.969Z,15.80
2022-10-18T02:45:34.758Z,15.80
2022-10-18T02:48:36.352Z,15.80
2022-10-18T02:51:37.928Z,15.70
2022-10-18T02:54:39.525Z,15.70
2022-10-18T02:57:41.228Z,15.80
2022-10-18T03:00:42.792Z,15.80
2022-10-18T03:03:44.380Z,15.80
2022-10-18T03:06:45.937Z,15.90
2022-10-18T03:09:47.527Z,15.90
2022-10-18T03:12:49.084Z,15.80
2022-10-18T03:15:50.646Z,15.80
2022-10-18T03:18:52.222Z,15.80
2022-10-18T03:21:53.813Z,15.80
2022-10-18T03:24:55.412Z,15.80
2022-10-18T03:27:56.977Z,15.80
2022-10-18T03:31:03.153Z,15.90
2022-10-18T03:34:05.023Z,16.00
2022-10-18T03:37:06.709Z,16.00
2022-10-18T03:40:11.932Z,16.10
2022-10-18T03:43:13.582Z,16.10
2022-10-18T03:46:15.135Z,16.10
2022-10-18T03:49:16.707Z,16.20
2022-10-18T03:52:18.298Z,16.20
2022-10-18T03:55:19.895Z,16.30
2022-10-18T03:58:22.208Z,16.30
2022-10-18T04:01:24.207Z,16.30
2022-10-18T04:04:25.835Z,16.30
2022-10-18T04:07:27.464Z,16.30
2022-10-18T04:10:29.211Z,16.30
2022-10-18T04:13:30.785Z,16.40
2022-10-18T04:16:32.412Z,16.40
2022-10-18T04:19:34.049Z,16.40
2022-10-18T04:22:35.668Z,16.30
2022-10-18T04:25:37.253Z,16.30
2022-10-18T04:28:40.168Z,16.30
2022-10-18T04:31:42.559Z,16.30
2022-10-18T04:34:44.163Z,16.30
2022-10-18T04:37:45.792Z,16.30
2022-10-18T04:40:47.379Z,16.30
2022-10-18T04:43:49.161Z,16.30
2022-10-18T04:46:50.763Z,16.30
2022-10-18T04:49:52.336Z,16.40
2022-10-18T04:52:53.952Z,16.40
2022-10-18T04:55:55.590Z,16.40
2022-10-18T04:58:58.329Z,16.40
2022-10-18T05:01:59.988Z,16.50
2022-10-18T05:05:01.624Z,16.50
2022-10-18T05:08:03.748Z,16.50
2022-10-18T05:11:05.612Z,16.50
2022-10-18T05:14:09.994Z,16.50
2022-10-18T05:17:11.576Z,16.50
2022-10-18T05:23:19.735Z,16.40
2022-10-18T05:26:21.299Z,16.40
2022-10-18T05:29:23.160Z,16.40
2022-10-18T05:32:24.940Z,16.40
2022-10-18T05:35:26.558Z,16.40
2022-10-18T05:38:30.784Z,16.30
2022-10-18T05:41:32.817Z,16.30
2022-10-18T05:44:34.684Z,16.30
2022-10-18T05:47:36.321Z,16.40
2022-10-18T05:50:40.239Z,16.50
2022-10-18T05:53:42.220Z,16.50
2022-10-18T05:56:43.810Z,16.50
2022-10-18T05:59:45.439Z,16.50
2022-10-18T06:02:47.120Z,16.60
2022-10-18T06:05:48.718Z,16.60
2022-10-18T06:08:50.520Z,16.60
2022-10-18T06:11:52.220Z,16.60
2022-10-18T06:14:54.174Z,16.50
2022-10-18T06:17:55.839Z,16.40
2022-10-18T06:20:59.153Z,16.30
2022-10-18T06:24:00.817Z,16.30
2022-10-18T06:27:08.368Z,16.30
2022-10-18T06:30:10.395Z,16.40
2022-10-18T06:33:11.966Z,16.40
2022-10-18T06:36:19.415Z,16.40
2022-10-18T06:39:21.059Z,16.40
2022-10-18T06:42:22.802Z,16.50
2022-10-18T06:45:24.463Z,16.50
2022-10-18T06:48:26.032Z,16.50
2022-10-18T06:51:27.617Z,16.40
2022-10-18T06:54:29.325Z,16.30
2022-10-18T06:57:31.615Z,16.30
2022-10-18T07:00:33.221Z,16.30
2022-10-18T07:03:35.266Z,16.30
2022-10-18T07:06:36.871Z,16.30
2022-10-18T07:09:39.224Z,16.40
2022-10-18T07:12:40.857Z,16.50
2022-10-18T07:15:42.450Z,16.50
2022-10-18T07:18:50.512Z,16.70
2022-10-18T07:21:52.124Z,16.80
2022-10-18T07:24:53.697Z,16.90
2022-10-18T07:27:55.270Z,17.00
2022-10-18T07:30:57.230Z,17.10
2022-10-18T07:33:59.145Z,17.20
2022-10-18T07:37:02.144Z,17.10
2022-10-18T07:40:04.033Z,17.20
2022-10-18T07:43:06.813Z,17.20
2022-10-18T07:46:09.964Z,17.30
2022-10-18T07:49:11.516Z,17.50
2022-10-18T07:52:13.173Z,17.60
2022-10-18T07:55:15.356Z,17.70
2022-10-18T07:58:16.953Z,17.70
2022-10-18T08:01:20.082Z,17.80
2022-10-18T08:04:21.797Z,17.80
2022-10-18T08:07:23.354Z,18.00
2022-10-18T08:10:24.955Z,18.00
2022-10-18T08:13:26.552Z,18.10
2022-10-18T08:16:29.162Z,18.10
2022-10-18T08:19:30.885Z,18.30
2022-10-18T08:22:32.648Z,18.40
2022-10-18T08:28:46.063Z,18.50
2022-10-18T08:31:55.416Z,18.80
2022-10-18T08:34:56.968Z,18.90
2022-10-18T08:37:59.240Z,19.10
2022-10-18T08:41:22.450Z,19.30
2022-10-18T08:44:30.871Z,19.40
2022-10-18T08:47:38.763Z,19.40
2022-10-18T08:50:41.294Z,19.50
2022-10-18T08:54:01.717Z,19.60
2022-10-18T08:57:10.839Z,19.50
2022-10-18T09:00:24.404Z,19.40
2022-10-18T09:03:54.860Z,19.20
2022-10-18T09:07:04.910Z,19.20
2022-10-18T09:10:38.518Z,19.30
2022-10-18T09:14:28.543Z,19.40
2022-10-18T09:17:50.083Z,19.30
2022-10-18T09:20:58.561Z,19.10
2022-10-18T09:24:15.804Z,19.00
2022-10-18T09:27:19.456Z,18.90
2022-10-18T09:30:42.416Z,18.70
2022-10-18T09:34:20.690Z,18.60
2022-10-18T09:37:23.942Z,18.50
2022-10-18T09:40:29.022Z,18.50
2022-10-18T09:43:52.563Z,18.40
2022-10-18T09:47:22.887Z,18.40
2022-10-18T09:50:29.830Z,18.70
2022-10-18T09:53:53.165Z,18.90
2022-10-18T10:00:03.339Z,19.10
2022-10-18T10:03:12.899Z,19.30
2022-10-18T10:06:15.979Z,19.40
2022-10-18T10:09:21.322Z,19.50
2022-10-18T10:12:36.896Z,19.40
2022-10-18T10:15:42.445Z,19.30
2022-10-18T10:18:44.313Z,19.40
2022-10-18T10:21:48.289Z,19.50
2022-10-18T10:24:51.521Z,19.60
2022-10-18T10:27:53.408Z,19.60
2022-10-18T10:31:14.959Z,19.70
2022-10-18T10:34:19.720Z,19.60
2022-10-18T10:37:34.664Z,19.80
2022-10-18T10:40:55.606Z,20.00
2022-10-18T10:43:57.664Z,20.10
2022-10-18T10:46:59.844Z,20.30
2022-10-18T10:50:12.952Z,20.30
2022-10-18T10:53:41.267Z,20.40
2022-10-18T10:57:12.350Z,20.60
2022-10-18T11:00:32.368Z,20.60
2022-10-18T11:03:34.085Z,20.40
2022-10-18T11:06:43.102Z,20.10
2022-10-18T11:09:51.182Z,20.10
2022-10-18T11:13:09.300Z,20.10
2022-10-18T11:16:22.026Z,20.20
2022-10-18T11:19:40.136Z,20.30
2022-10-18T11:23:01.873Z,20.20
2022-10-18T11:26:09.236Z,20.00
2022-10-18T11:29:52.001Z,19.70
2022-10-18T11:33:32.638Z,19.60
2022-10-18T11:37:25.873Z,19.30
2022-10-18T11:40:53.193Z,19.20
2022-10-18T11:44:02.703Z,19.20
2022-10-18T11:47:38.690Z,19.20
2022-10-18T11:51:25.571Z,19.30
2022-10-18T11:54:59.336Z,19.50
2022-10-18T11:58:18.129Z,19.60
2022-10-18T12:01:40.564Z,19.90
2022-10-18T12:05:05.147Z,20.20
2022-10-18T12:08:31.650Z,20.50
2022-10-18T12:11:47.454Z,20.70
2022-10-18T12:14:53.721Z,21.00
2022-10-18T12:17:59.763Z,21.30
2022-10-18T12:21:02.552Z,21.30
2022-10-18T12:24:27.468Z,21.40
2022-10-18T12:27:40.098Z,21.40
2022-10-18T12:31:11.861Z,21.00
2022-10-18T12:34:25.672Z,20.80
2022-10-18T12:38:00.436Z,20.70
2022-10-18T12:41:03.059Z,20.80
2022-10-18T12:44:18.390Z,21.00
2022-10-18T12:47:25.213Z,21.20
2022-10-18T12:50:34.942Z,21.30
2022-10-18T12:53:36.698Z,21.50
2022-10-18T12:56:43.209Z,21.70
2022-10-18T12:59:44.859Z,21.90
2022-10-18T13:02:46.545Z,21.90
2022-10-18T13:05:56.056Z,22.30
2022-10-18T13:09:17.049Z,22.40
2022-10-18T13:12:18.777Z,22.40
2022-10-18T13:15:35.181Z,22.30
2022-10-18T13:18:43.648Z,22.30
2022-10-18T13:22:10.775Z,22.10
2022-10-18T13:25:24.566Z,21.90
2022-10-18T13:28:49.162Z,21.50
2022-10-18T13:31:58.593Z,21.50
2022-10-18T13:35:00.250Z,21.80
2022-10-18T13:38:02.526Z,22.20
2022-10-18T13:41:13.119Z,22.60
2022-10-18T13:44:40.418Z,22.70
2022-10-18T13:47:42.089Z,22.30
2022-10-18T13:50:45.949Z,22.20
2022-10-18T13:53:47.473Z,22.10
2022-10-18T13:57:10.846Z,21.70
2022-10-18T14:00:57.254Z,21.40
2022-10-18T14:04:21.146Z,21.20
2022-10-18T14:07:26.863Z,20.60
2022-10-18T14:11:03.004Z,20.20
2022-10-18T14:14:42.336Z,20.10
2022-10-18T14:17:59.007Z,20.10
2022-10-18T14:21:16.903Z,20.00
2022-10-18T14:24:26.465Z,20.00
2022-10-18T14:27:32.439Z,19.90
2022-10-18T14:30:35.601Z,19.90
2022-10-18T14:33:46.770Z,19.90
2022-10-18T14:36:49.974Z,20.10
2022-10-18T14:39:51.609Z,20.10
2022-10-18T14:42:53.287Z,20.00
2022-10-18T14:45:54.967Z,20.00
2022-10-18T14:49:03.850Z,19.90
2022-10-18T14:52:05.482Z,20.00
2022-10-18T14:55:24.599Z,20.00
2022-10-18T14:58:27.081Z,20.00
2022-10-18T15:01:31.421Z,20.10
2022-10-18T15:04:33.283Z,20.10
2022-10-18T15:07:35.770Z,20.20
2022-10-18T15:10:37.976Z,20.10
2022-10-18T15:13:59.011Z,20.00
2022-10-18T15:17:04.662Z,19.80
2022-10-18T15:20:28.568Z,19.80
2022-10-18T15:23:31.275Z,19.70
2022-10-18T15:26:32.925Z,19.70
2022-10-18T15:29:36.608Z,19.70
2022-10-18T15:32:40.251Z,19.70
2022-10-18T15:35:41.853Z,19.60
2022-10-18T15:38:47.496Z,19.50
2022-10-18T15:41:58.912Z,19.50
2022-10-18T15:45:00.734Z,19.50
2022-10-18T15:48:12.010Z,19.50
2022-10-18T15:51:46.445Z,19.40
2022-10-18T15:58:04.423Z,19.10
2022-10-18T16:01:15.299Z,18.90
2022-10-18T16:04:22.897Z,19.00
2022-10-18T16:07:24.492Z,18.90
2022-10-18T16:10:26.181Z,18.90
2022-10-18T16:13:27.924Z,18.90
2022-10-18T16:16:29.996Z,18.90
2022-10-18T16:19:32.776Z,18.90
2022-10-18T16:22:36.964Z,18.90
2022-10-18T16:25:38.803Z,18.90
2022-10-18T16:28:41.227Z,18.90
2022-10-18T16:31:43.080Z,18.90
2022-10-18T16:34:44.674Z,18.90
2022-10-18T16:37:46.519Z,18.90
2022-10-18T16:40:48.336Z,18.70
2022-10-18T16:43:51.989Z,18.60
2022-10-18T16:46:54.187Z,18.60
2022-10-18T16:50:01.526Z,18.50
2022-10-18T16:53:05.845Z,18.50
2022-10-18T16:56:14.318Z,18.40
2022-10-18T16:59:29.324Z,18.30
2022-10-18T17:02:31.259Z,18.20
2022-10-18T17:05:33.103Z,18.20
2022-10-18T17:08:34.661Z,18.20
2022-10-18T17:11:38.951Z,18.20
2022-10-18T17:14:40.515Z,18.20
2022-10-18T17:17:42.184Z,18.10
2022-10-18T17:20:44.471Z,18.10
2022-10-18T17:23:46.271Z,18.10
2022-10-18T17:26:47.895Z,18.20
2022-10-18T17:29:49.492Z,18.10
2022-10-18T17:32:51.148Z,18.20
2022-10-18T17:35:52.738Z,18.20
2022-10-18T17:38:54.923Z,18.10
2022-10-18T17:41:56.714Z,18.20
2022-10-18T17:44:58.341Z,18.20
2022-10-18T17:47:59.983Z,18.20
2022-10-18T17:51:13.251Z,18.20
2022-10-18T17:54:14.862Z,18.10
2022-10-18T17:57:16.552Z,18.00
2022-10-18T18:00:18.213Z,18.00
2022-10-18T18:03:20.066Z,18.00
2022-10-18T18:06:30.617Z,17.90
2022-10-18T18:09:32.492Z,17.90
2022-10-18T18:12:34.510Z,17.90
2022-10-18T18:15:36.263Z,17.80
2022-10-18T18:18:37.889Z,17.70
2022-10-18T18:21:40.803Z,17.50
2022-10-18T18:24:42.653Z,17.40
2022-10-18T18:27:44.219Z,17.40
2022-10-18T18:30:45.827Z,17.30
2022-10-18T18:33:47.391Z,17.20
2022-10-18T18:36:49.331Z,17.10
2022-10-18T18:39:51.020Z,17.10
2022-10-18T18:43:07.102Z,17.00
2022-10-18T18:46:13.995Z,16.90
2022-10-18T18:49:15.899Z,16.80
2022-10-18T18:52:17.472Z,16.70
2022-10-18T18:55:19.044Z,16.60
2022-10-18T18:58:20.660Z,16.40
2022-10-18T19:01:25.426Z,16.40
2022-10-18T19:04:28.967Z,16.40
2022-10-18T19:07:30.889Z,16.40
2022-10-18T19:10:32.796Z,16.30
2022-10-18T19:13:34.647Z,16.20
2022-10-18T19:16:45.418Z,16.20
2022-10-18T19:19:46.995Z,16.20
2022-10-18T19:22:48.708Z,16.20
2022-10-18T19:25:50.339Z,16.10
2022-10-18T19:28:51.937Z,16.00
2022-10-18T19:31:57.034Z,15.90
2022-10-18T19:34:58.681Z,15.90
2022-10-18T19:38:00.257Z,15.80
2022-10-18T19:41:01.879Z,15.80
2022-10-18T19:44:03.660Z,15.70
2022-10-18T19:47:07.377Z,15.60
2022-10-18T19:50:09.142Z,15.60
2022-10-18T19:53:10.730Z,15.50
2022-10-18T19:56:19.141Z,15.40
2022-10-18T19:59:22.425Z,15.40
2022-10-18T20:02:24.055Z,15.40
2022-10-18T20:05:25.823Z,15.40
2022-10-18T20:08:29.497Z,15.40
2022-10-18T20:11:31.441Z,15.30
2022-10-18T20:14:33.000Z,15.20
2022-10-18T20:17:34.696Z,15.20
2022-10-18T20:20:36.981Z,15.20
2022-10-18T20:23:41.105Z,15.20
2022-10-18T20:26:43.643Z,15.20
2022-10-18T20:29:46.783Z,15.20
2022-10-18T20:32:50.839Z,15.00
2022-10-18T20:35:52.518Z,14.90
2022-10-18T20:38:54.800Z,14.90
2022-10-18T20:41:56.389Z,14.90
2022-10-18T20:44:58.014Z,14.90
2022-10-18T20:47:59.619Z,14.80
2022-10-18T20:51:12.567Z,14.80
2022-10-18T20:54:14.217Z,14.70
2022-10-18T20:57:15.833Z,14.70
2022-10-18T21:00:17.451Z,14.70
2022-10-18T21:03:19.010Z,14.70
2022-10-18T21:06:31.557Z,14.60
2022-10-18T21:09:33.404Z,14.60
2022-10-18T21:12:35.254Z,14.60
2022-10-18T21:15:37.157Z,14.50
2022-10-18T21:18:40.281Z,14.50
2022-10-18T21:21:44.312Z,14.50
2022-10-18T21:24:46.473Z,14.50
2022-10-18T21:27:48.058Z,14.50
2022-10-18T21:30:49.639Z,14.50
2022-10-18T21:34:03.209Z,14.50
2022-10-18T21:37:04.809Z,14.50
2022-10-18T21:40:07.269Z,14.50
2022-10-18T21:43:08.843Z,14.40
2022-10-18T21:46:11.299Z,14.40
2022-10-18T21:49:14.021Z,14.40
2022-10-18T21:52:16.516Z,14.40
2022-10-18T21:55:18.073Z,14.40
2022-10-18T21:58:19.706Z,14.30
2022-10-18T22:01:32.933Z,14.30
2022-10-18T22:04:35.698Z,14.20
2022-10-18T22:07:37.646Z,14.10
2022-10-18T22:10:39.276Z,14.10
2022-10-18T22:13:41.346Z,14.00
2022-10-18T22:16:42.904Z,13.90
2022-10-18T22:19:44.501Z,13.90
2022-10-18T22:22:46.243Z,13.80
2022-10-18T22:25:47.976Z,13.80
2022-10-18T22:28:55.838Z,13.70
2022-10-18T22:31:57.503Z,13.70
2022-10-18T22:34:59.083Z,13.60
2022-10-18T22:38:00.651Z,13.60
2022-10-18T22:41:07.196Z,13.60
2022-10-18T22:44:12.188Z,13.60
2022-10-18T22:47:13.782Z,13.50
2022-10-18T22:50:15.422Z,13.60
2022-10-18T22:53:17.048Z,13.60
2022-10-18T22:56:20.924Z,13.60
2022-10-18T22:59:23.036Z,13.60
2022-10-18T23:02:24.632Z,13.60
2022-10-18T23:05:26.185Z,13.60
2022-10-18T23:08:28.117Z,13.50
2022-10-18T23:11:29.714Z,13.50
2022-10-18T23:14:31.289Z,13.50
2022-10-18T23:17:33.192Z,13.50
2022-10-18T23:20:34.908Z,13.40
2022-10-18T23:23:38.562Z,13.40
2022-10-18T23:26:40.175Z,13.40
2022-10-18T23:29:41.765Z,13.40
2022-10-18T23:32:43.407Z,13.30
2022-10-18T23:35:45.008Z,13.30
2022-10-18T23:38:46.723Z,13.30
2022-10-18T23:41:48.305Z,13.30
2022-10-18T23:44:49.900Z,13.30
2022-10-18T23:47:51.456Z,13.30
2022-10-18T23:50:53.413Z,13.30
2022-10-18T23:53:54.999Z,13.30
2022-10-18T23:56:56.562Z,13.20
2022-10-18T23:59:58.124Z,13.20
